sensor_id;sensor_type;location;lat;lon;timestamp;pressure;altitude;pressure_sealevel;temperature;humidity
19845;BME280;10083;51.038;7.012;2024-01-06T00:00:23;101948.56;;;8.92;100.00
19845;BME280;10083;51.038;7.012;2024-01-06T00:02:51;101933.41;;;8.82;100.00
19845;BME280;10083;51.038;7.012;2024-01-06T00:05:20;101937.88;;;8.90;100.00
19845;BME280;10083;51.038;7.012;2024-01-06T00:07:47;101934.31;;;9.05;100.00
19845;BME280;10083;51.038;7.012;2024-01-06T00:10:15;101946.78;;;8.86;100.00
19845;BME280;10083;51.038;7.012;2024-01-06T00:12:42;101947.69;;;9.02;100.00
19845;BME280;10083;51.038;7.012;2024-01-06T00:15:09;101954.78;;;8.92;100.00
19845;BME280;10083;51.038;7.012;2024-01-06T00:17:36;101938.78;;;9.03;100.00
19845;BME280;10083;51.038;7.012;2024-01-06T00:20:04;101949.50;;;9.12;100.00
19845;BME280;10083;51.038;7.012;2024-01-06T00:22:33;101941.47;;;9.04;100.00
19845;BME280;10083;51.038;7.012;2024-01-06T00:25:01;101937.88;;;9.01;100.00
19845;BME280;10083;51.038;7.012;2024-01-06T00:27:28;101942.34;;;9.05;100.00
19845;BME280;10083;51.038;7.012;2024-01-06T00:29:55;101953.91;;;8.95;100.00
19845;BME280;10083;51.038;7.012;2024-01-06T00:32:23;101941.44;;;8.91;100.00
19845;BME280;10083;51.038;7.012;2024-01-06T00:34:50;101941.41;;;8.82;100.00
19845;BME280;10083;51.038;7.012;2024-01-06T00:37:17;101913.84;;;8.87;100.00
19845;BME280;10083;51.038;7.012;2024-01-06T00:39:46;101914.75;;;9.03;100.00
19845;BME280;10083;51.038;7.012;2024-01-06T00:42:16;101915.59;;;8.90;100.00
19845;BME280;10083;51.038;7.012;2024-01-06T00:44:43;101939.63;;;8.88;100.00
19845;BME280;10083;51.038;7.012;2024-01-06T00:47:11;101944.06;;;8.85;100.00
19845;BME280;10083;51.038;7.012;2024-01-06T00:49:38;101936.09;;;8.86;100.00
19845;BME280;10083;51.038;7.012;2024-01-06T00:52:05;101950.31;;;8.81;100.00
19845;BME280;10083;51.038;7.012;2024-01-06T00:54:33;101963.72;;;8.99;100.00
19845;BME280;10083;51.038;7.012;2024-01-06T00:57:03;102019.75;;;8.78;100.00
19845;BME280;10083;51.038;7.012;2024-01-06T00:59:30;102033.94;;;8.71;100.00
19845;BME280;10083;51.038;7.012;2024-01-06T01:01:57;102098.84;;;8.62;100.00
19845;BME280;10083;51.038;7.012;2024-01-06T01:04:25;102111.38;;;8.68;100.00
19845;BME280;10083;51.038;7.012;2024-01-06T01:06:55;102149.72;;;8.79;100.00
19845;BME280;10083;51.038;7.012;2024-01-06T01:09:22;102163.84;;;8.61;100.00
19845;BME280;10083;51.038;7.012;2024-01-06T01:11:52;102210.22;;;8.75;100.00
19845;BME280;10083;51.038;7.012;2024-01-06T01:14:21;102252.91;;;8.71;100.00
19845;BME280;10083;51.038;7.012;2024-01-06T01:16:48;102305.38;;;8.62;100.00
19845;BME280;10083;51.038;7.012;2024-01-06T01:19:16;102348.09;;;8.61;100.00
19845;BME280;10083;51.038;7.012;2024-01-06T01:21:43;102388.25;;;8.72;100.00
19845;BME280;10083;51.038;7.012;2024-01-06T01:24:10;102424.63;;;8.62;100.00
19845;BME280;10083;51.038;7.012;2024-01-06T01:26:37;102471.13;;;8.79;100.00
19845;BME280;10083;51.038;7.012;2024-01-06T01:29:04;102517.22;;;8.63;100.00
19845;BME280;10083;51.038;7.012;2024-01-06T01:31:33;102555.59;;;8.70;100.00
19845;BME280;10083;51.038;7.012;2024-01-06T01:34:01;102586.97;;;8.86;100.00
19845;BME280;10083;51.038;7.012;2024-01-06T01:36:28;102634.41;;;9.05;100.00
19845;BME280;10083;51.038;7.012;2024-01-06T01:38:55;102669.75;;;8.83;100.00
19845;BME280;10083;51.038;7.012;2024-01-06T01:41:24;102700.16;;;8.94;100.00
19845;BME280;10083;51.038;7.012;2024-01-06T01:43:51;102728.66;;;8.92;100.00
19845;BME280;10083;51.038;7.012;2024-01-06T01:46:25;102766.06;;;8.92;100.00
19845;BME280;10083;51.038;7.012;2024-01-06T01:48:54;102770.19;;;8.73;100.00
19845;BME280;10083;51.038;7.012;2024-01-06T01:51:23;102796.13;;;8.79;100.00
19845;BME280;10083;51.038;7.012;2024-01-06T01:53:51;102822.03;;;8.84;100.00
19845;BME280;10083;51.038;7.012;2024-01-06T01:56:19;102854.00;;;8.78;100.00
19845;BME280;10083;51.038;7.012;2024-01-06T01:58:47;102889.44;;;8.71;100.00
19845;BME280;10083;51.038;7.012;2024-01-06T02:01:15;102932.53;;;8.89;100.00
19845;BME280;10083;51.038;7.012;2024-01-06T02:03:42;102952.28;;;8.96;100.00
19845;BME280;10083;51.038;7.012;2024-01-06T02:06:13;102966.28;;;8.84;100.00
19845;BME280;10083;51.038;7.012;2024-01-06T02:08:40;102976.50;;;8.61;100.00
19845;BME280;10083;51.038;7.012;2024-01-06T02:11:07;102978.50;;;8.72;100.00
19845;BME280;10083;51.038;7.012;2024-01-06T02:13:35;103015.91;;;8.72;100.00
19845;BME280;10083;51.038;7.012;2024-01-06T02:16:04;103037.25;;;8.70;100.00
19845;BME280;10083;51.038;7.012;2024-01-06T02:18:32;103052.56;;;8.79;100.00
19845;BME280;10083;51.038;7.012;2024-01-06T02:21:00;103046.31;;;8.78;100.00
19845;BME280;10083;51.038;7.012;2024-01-06T02:23:34;103066.00;;;8.83;100.00
19845;BME280;10083;51.038;7.012;2024-01-06T02:26:02;103057.97;;;8.82;100.00
19845;BME280;10083;51.038;7.012;2024-01-06T02:28:30;103046.94;;;8.67;100.00
19845;BME280;10083;51.038;7.012;2024-01-06T02:30:57;103034.88;;;8.85;100.00
19845;BME280;10083;51.038;7.012;2024-01-06T02:33:24;103021.19;;;8.69;100.00
19845;BME280;10083;51.038;7.012;2024-01-06T02:35:51;103026.72;;;8.79;100.00
19845;BME280;10083;51.038;7.012;2024-01-06T02:38:19;103032.22;;;8.85;100.00
19845;BME280;10083;51.038;7.012;2024-01-06T02:40:47;103034.84;;;8.84;100.00
19845;BME280;10083;51.038;7.012;2024-01-06T02:43:15;103039.41;;;8.89;100.00
19845;BME280;10083;51.038;7.012;2024-01-06T02:45:42;103024.88;;;8.75;100.00
19845;BME280;10083;51.038;7.012;2024-01-06T02:48:09;103045.56;;;8.85;100.00
19845;BME280;10083;51.038;7.012;2024-01-06T02:50:36;103090.41;;;9.00;100.00
19845;BME280;10083;51.038;7.012;2024-01-06T02:53:04;103084.09;;;8.96;100.00
19845;BME280;10083;51.038;7.012;2024-01-06T02:55:31;103092.38;;;9.10;100.00
19845;BME280;10083;51.038;7.012;2024-01-06T02:58:00;103087.81;;;9.03;100.00
19845;BME280;10083;51.038;7.012;2024-01-06T03:00:27;103074.56;;;9.09;100.00
19845;BME280;10083;51.038;7.012;2024-01-06T03:02:54;103062.94;;;9.07;100.00
19845;BME280;10083;51.038;7.012;2024-01-06T03:05:21;103064.50;;;8.97;100.00
19845;BME280;10083;51.038;7.012;2024-01-06T03:07:49;103040.66;;;9.06;100.00
19845;BME280;10083;51.038;7.012;2024-01-06T03:10:16;103035.94;;;8.93;100.00
19845;BME280;10083;51.038;7.012;2024-01-06T03:12:43;103038.88;;;9.07;100.00
19845;BME280;10083;51.038;7.012;2024-01-06T03:15:14;103038.69;;;8.98;100.00
19845;BME280;10083;51.038;7.012;2024-01-06T03:17:44;103042.38;;;9.03;100.00
19845;BME280;10083;51.038;7.012;2024-01-06T03:20:12;103038.69;;;8.98;100.00
19845;BME280;10083;51.038;7.012;2024-01-06T03:22:39;103057.50;;;9.02;100.00
19845;BME280;10083;51.038;7.012;2024-01-06T03:25:07;103064.47;;;8.94;100.00
19845;BME280;10083;51.038;7.012;2024-01-06T03:27:34;103061.66;;;8.87;100.00
19845;BME280;10083;51.038;7.012;2024-01-06T03:30:01;103079.63;;;8.95;100.00
19845;BME280;10083;51.038;7.012;2024-01-06T03:32:31;103107.06;;;8.88;100.00
19845;BME280;10083;51.038;7.012;2024-01-06T03:34:58;103108.81;;;8.86;100.00
19845;BME280;10083;51.038;7.012;2024-01-06T03:37:25;103139.34;;;8.97;100.00
19845;BME280;10083;51.038;7.012;2024-01-06T03:39:52;103137.47;;;8.92;100.00
19845;BME280;10083;51.038;7.012;2024-01-06T03:42:19;103145.53;;;8.95;100.00
19845;BME280;10083;51.038;7.012;2024-01-06T03:44:47;103149.22;;;9.00;100.00
19845;BME280;10083;51.038;7.012;2024-01-06T03:47:14;103157.94;;;8.91;100.00
19845;BME280;10083;51.038;7.012;2024-01-06T03:49:45;103153.66;;;9.01;100.00
19845;BME280;10083;51.038;7.012;2024-01-06T03:52:12;103154.72;;;9.07;100.00
19845;BME280;10083;51.038;7.012;2024-01-06T03:54:40;103162.53;;;8.98;100.00
19845;BME280;10083;51.038;7.012;2024-01-06T03:57:07;103155.47;;;9.02;100.00
19845;BME280;10083;51.038;7.012;2024-01-06T03:59:36;103171.50;;;9.00;100.00
19845;BME280;10083;51.038;7.012;2024-01-06T04:02:04;103183.00;;;8.98;100.00
19845;BME280;10083;51.038;7.012;2024-01-06T04:04:31;103183.00;;;8.98;100.00
19845;BME280;10083;51.038;7.012;2024-01-06T04:07:00;103191.97;;;9.01;100.00
19845;BME280;10083;51.038;7.012;2024-01-06T04:09:28;103205.69;;;8.78;100.00
19845;BME280;10083;51.038;7.012;2024-01-06T04:11:55;103215.47;;;8.77;100.00
19845;BME280;10083;51.038;7.012;2024-01-06T04:14:23;103246.13;;;8.93;100.00
19845;BME280;10083;51.038;7.012;2024-01-06T04:16:50;103270.44;;;9.05;100.00
19845;BME280;10083;51.038;7.012;2024-01-06T04:19:18;103288.03;;;8.94;100.00
19845;BME280;10083;51.038;7.012;2024-01-06T04:21:46;103309.34;;;8.91;100.00
19845;BME280;10083;51.038;7.012;2024-01-06T04:24:16;103316.66;;;8.99;100.00
19845;BME280;10083;51.038;7.012;2024-01-06T04:26:43;103321.91;;;8.95;100.00
19845;BME280;10083;51.038;7.012;2024-01-06T04:29:11;103329.69;;;8.86;100.00
19845;BME280;10083;51.038;7.012;2024-01-06T04:31:39;103336.19;;;8.97;100.00
19845;BME280;10083;51.038;7.012;2024-01-06T04:34:06;103352.09;;;8.92;100.00
19845;BME280;10083;51.038;7.012;2024-01-06T04:36:33;103371.69;;;8.91;100.00
19845;BME280;10083;51.038;7.012;2024-01-06T04:39:01;103394.13;;;8.98;100.00
19845;BME280;10083;51.038;7.012;2024-01-06T04:41:29;103410.88;;;8.91;100.00
19845;BME280;10083;51.038;7.012;2024-01-06T04:43:57;103442.16;;;8.96;100.00
19845;BME280;10083;51.038;7.012;2024-01-06T04:46:24;103453.31;;;8.79;100.00
19845;BME280;10083;51.038;7.012;2024-01-06T04:48:51;103451.31;;;8.72;100.00
19845;BME280;10083;51.038;7.012;2024-01-06T04:51:19;103470.84;;;8.71;100.00
19845;BME280;10083;51.038;7.012;2024-01-06T04:53:46;103493.72;;;8.59;100.00
19845;BME280;10083;51.038;7.012;2024-01-06T04:56:13;103501.22;;;8.73;100.00
19845;BME280;10083;51.038;7.012;2024-01-06T04:58:42;103513.72;;;8.74;100.00
19845;BME280;10083;51.038;7.012;2024-01-06T05:01:10;103520.81;;;8.73;100.00
19845;BME280;10083;51.038;7.012;2024-01-06T05:03:37;103536.53;;;8.62;100.00
19845;BME280;10083;51.038;7.012;2024-01-06T05:06:05;103562.50;;;8.68;100.00
19845;BME280;10083;51.038;7.012;2024-01-06T05:08:34;103582.78;;;8.61;100.00
19845;BME280;10083;51.038;7.012;2024-01-06T05:11:07;103602.34;;;8.32;100.00
19845;BME280;10083;51.038;7.012;2024-01-06T05:13:36;103613.44;;;8.19;100.00
19845;BME280;10083;51.038;7.012;2024-01-06T05:16:10;103604.09;;;8.05;100.00
19845;BME280;10083;51.038;7.012;2024-01-06T05:18:37;103585.03;;;7.67;100.00
19845;BME280;10083;51.038;7.012;2024-01-06T05:21:04;103584.34;;;7.73;100.00
19845;BME280;10083;51.038;7.012;2024-01-06T05:23:31;103573.91;;;7.54;100.00
19845;BME280;10083;51.038;7.012;2024-01-06T05:25:59;103552.94;;;7.64;100.00
19845;BME280;10083;51.038;7.012;2024-01-06T05:28:26;103538.19;;;7.76;100.00
19845;BME280;10083;51.038;7.012;2024-01-06T05:30:53;103512.56;;;7.52;100.00
19845;BME280;10083;51.038;7.012;2024-01-06T05:33:22;103505.66;;;7.59;100.00
19845;BME280;10083;51.038;7.012;2024-01-06T05:35:49;103490.47;;;7.56;100.00
19845;BME280;10083;51.038;7.012;2024-01-06T05:38:16;103490.50;;;7.58;100.00
19845;BME280;10083;51.038;7.012;2024-01-06T05:40:43;103474.53;;;7.33;100.00
19845;BME280;10083;51.038;7.012;2024-01-06T05:43:11;103471.94;;;7.34;100.00
19845;BME280;10083;51.038;7.012;2024-01-06T05:45:41;103460.13;;;7.26;100.00
19845;BME280;10083;51.038;7.012;2024-01-06T05:48:09;103456.78;;;7.33;100.00
19845;BME280;10083;51.038;7.012;2024-01-06T05:50:39;103446.88;;;7.29;100.00
19845;BME280;10083;51.038;7.012;2024-01-06T05:53:07;103452.69;;;7.43;100.00
19845;BME280;10083;51.038;7.012;2024-01-06T05:55:34;103451.78;;;7.42;100.00
19845;BME280;10083;51.038;7.012;2024-01-06T05:58:02;103431.72;;;7.26;100.00
19845;BME280;10083;51.038;7.012;2024-01-06T06:00:29;103434.72;;;7.37;100.00
19845;BME280;10083;51.038;7.012;2024-01-06T06:02:57;103417.72;;;7.07;100.00
19845;BME280;10083;51.038;7.012;2024-01-06T06:05:24;103417.47;;;7.26;100.00
19845;BME280;10083;51.038;7.012;2024-01-06T06:07:53;103417.34;;;7.21;100.00
19845;BME280;10083;51.038;7.012;2024-01-06T06:10:21;103403.53;;;7.08;100.00
19845;BME280;10083;51.038;7.012;2024-01-06T06:12:48;103384.53;;;7.24;100.00
19845;BME280;10083;51.038;7.012;2024-01-06T06:15:15;103373.66;;;7.18;100.00
19845;BME280;10083;51.038;7.012;2024-01-06T06:17:42;103363.13;;;7.21;100.00
19845;BME280;10083;51.038;7.012;2024-01-06T06:20:10;103337.56;;;7.01;100.00
19845;BME280;10083;51.038;7.012;2024-01-06T06:22:37;103359.09;;;7.07;100.00
19845;BME280;10083;51.038;7.012;2024-01-06T06:25:07;103355.06;;;7.19;100.00
19845;BME280;10083;51.038;7.012;2024-01-06T06:27:34;103367.47;;;7.19;100.00
19845;BME280;10083;51.038;7.012;2024-01-06T06:30:01;103377.97;;;7.41;100.00
19845;BME280;10083;51.038;7.012;2024-01-06T06:32:29;103361.69;;;7.32;100.00
19845;BME280;10083;51.038;7.012;2024-01-06T06:34:56;103363.06;;;7.19;100.00
19845;BME280;10083;51.038;7.012;2024-01-06T06:37:27;103357.28;;;7.06;100.00
19845;BME280;10083;51.038;7.012;2024-01-06T06:39:54;103359.69;;;7.25;100.00
19845;BME280;10083;51.038;7.012;2024-01-06T06:42:22;103359.56;;;7.20;100.00
19845;BME280;10083;51.038;7.012;2024-01-06T06:44:50;103366.56;;;7.18;100.00
19845;BME280;10083;51.038;7.012;2024-01-06T06:47:17;103345.81;;;7.35;100.00
19845;BME280;10083;51.038;7.012;2024-01-06T06:49:45;103341.84;;;7.51;100.00
19845;BME280;10083;51.038;7.012;2024-01-06T06:52:14;103333.13;;;7.26;100.00
19845;BME280;10083;51.038;7.012;2024-01-06T06:54:44;103345.16;;;7.42;100.00
19845;BME280;10083;51.038;7.012;2024-01-06T06:57:11;103350.47;;;7.42;100.00
19845;BME280;10083;51.038;7.012;2024-01-06T06:59:40;103349.72;;;7.46;100.00
19845;BME280;10083;51.038;7.012;2024-01-06T07:02:07;103343.25;;;7.38;100.00
19845;BME280;10083;51.038;7.012;2024-01-06T07:04:35;103337.25;;;7.17;100.00
19845;BME280;10083;51.038;7.012;2024-01-06T07:07:02;103329.91;;;7.38;100.00
19845;BME280;10083;51.038;7.012;2024-01-06T07:09:33;103328.66;;;7.55;100.00
19845;BME280;10083;51.038;7.012;2024-01-06T07:12:00;103324.19;;;7.54;100.00
19845;BME280;10083;51.038;7.012;2024-01-06T07:14:28;103323.28;;;7.54;100.00
19845;BME280;10083;51.038;7.012;2024-01-06T07:16:56;103324.09;;;7.51;100.00
19845;BME280;10083;51.038;7.012;2024-01-06T07:19:24;103308.97;;;7.50;100.00
19845;BME280;10083;51.038;7.012;2024-01-06T07:21:51;103307.19;;;7.51;100.00
19845;BME280;10083;51.038;7.012;2024-01-06T07:24:18;103297.44;;;7.23;100.00
19845;BME280;10083;51.038;7.012;2024-01-06T07:26:45;103288.59;;;7.24;100.00
19845;BME280;10083;51.038;7.012;2024-01-06T07:29:16;103279.63;;;7.20;100.00
19845;BME280;10083;51.038;7.012;2024-01-06T07:31:43;103272.41;;;7.18;100.00
19845;BME280;10083;51.038;7.012;2024-01-06T07:34:11;103279.81;;;7.26;100.00
19845;BME280;10083;51.038;7.012;2024-01-06T07:36:39;103269.16;;;7.26;100.00
19845;BME280;10083;51.038;7.012;2024-01-06T07:39:06;103247.56;;;7.17;100.00
19845;BME280;10083;51.038;7.012;2024-01-06T07:41:34;103241.78;;;7.04;100.00
19845;BME280;10083;51.038;7.012;2024-01-06T07:44:02;103243.69;;;7.08;100.00
19845;BME280;10083;51.038;7.012;2024-01-06T07:46:29;103245.28;;;7.31;100.00
19845;BME280;10083;51.038;7.012;2024-01-06T07:48:57;103246.31;;;7.36;100.00
19845;BME280;10083;51.038;7.012;2024-01-06T07:51:26;103239.22;;;7.35;100.00
19845;BME280;10083;51.038;7.012;2024-01-06T07:53:53;103241.88;;;7.35;100.00
19845;BME280;10083;51.038;7.012;2024-01-06T07:56:21;103251.09;;;7.18;100.00
19845;BME280;10083;51.038;7.012;2024-01-06T07:58:48;103256.31;;;7.13;100.00
19845;BME280;10083;51.038;7.012;2024-01-06T08:01:15;103261.28;;;7.03;100.00
19845;BME280;10083;51.038;7.012;2024-01-06T08:03:42;103266.19;;;7.17;100.00
19845;BME280;10083;51.038;7.012;2024-01-06T08:06:10;103263.06;;;7.31;100.00
19845;BME280;10083;51.038;7.012;2024-01-06T08:08:39;103265.16;;;7.12;100.00
19845;BME280;10083;51.038;7.012;2024-01-06T08:11:06;103265.00;;;7.08;100.00
19845;BME280;10083;51.038;7.012;2024-01-06T08:13:33;103268.22;;;6.98;100.00
19845;BME280;10083;51.038;7.012;2024-01-06T08:16:01;103277.84;;;7.21;100.00
19845;BME280;10083;51.038;7.012;2024-01-06T08:18:28;103270.09;;;7.00;100.00
19845;BME280;10083;51.038;7.012;2024-01-06T08:20:55;103283.34;;;7.27;100.00
19845;BME280;10083;51.038;7.012;2024-01-06T08:23:22;103292.13;;;6.96;100.00
19845;BME280;10083;51.038;7.012;2024-01-06T08:25:51;103277.03;;;6.95;100.00
19845;BME280;10083;51.038;7.012;2024-01-06T08:28:18;103284.44;;;7.05;100.00
19845;BME280;10083;51.038;7.012;2024-01-06T08:30:48;103285.94;;;6.96;100.00
19845;BME280;10083;51.038;7.012;2024-01-06T08:33:15;103286.81;;;6.96;100.00
19845;BME280;10083;51.038;7.012;2024-01-06T08:35:43;103303.38;;;7.13;100.00
19845;BME280;10083;51.038;7.012;2024-01-06T08:38:10;103305.13;;;7.12;100.00
19845;BME280;10083;51.038;7.012;2024-01-06T08:40:40;103318.59;;;7.17;100.00
19845;BME280;10083;51.038;7.012;2024-01-06T08:43:09;103323.25;;;7.24;100.00
19845;BME280;10083;51.038;7.012;2024-01-06T08:45:36;103317.91;;;6.96;100.00
19845;BME280;10083;51.038;7.012;2024-01-06T08:48:04;103324.63;;;7.11;100.00
19845;BME280;10083;51.038;7.012;2024-01-06T08:50:32;103331.78;;;7.14;100.00
19845;BME280;10083;51.038;7.012;2024-01-06T08:52:59;103321.75;;;7.05;100.00
19845;BME280;10083;51.038;7.012;2024-01-06T08:55:26;103320.16;;;7.39;100.00
19845;BME280;10083;51.038;7.012;2024-01-06T08:57:53;103300.69;;;7.13;100.00
19845;BME280;10083;51.038;7.012;2024-01-06T09:00:23;103313.44;;;6.96;100.00
19845;BME280;10083;51.038;7.012;2024-01-06T09:02:50;103312.50;;;7.21;100.00
19845;BME280;10083;51.038;7.012;2024-01-06T09:05:17;103300.78;;;7.16;100.00
19845;BME280;10083;51.038;7.012;2024-01-06T09:07:45;103311.84;;;7.01;100.00
19845;BME280;10083;51.038;7.012;2024-01-06T09:10:16;103307.19;;;6.94;100.00
19845;BME280;10083;51.038;7.012;2024-01-06T09:12:43;103312.88;;;7.05;100.00
19845;BME280;10083;51.038;7.012;2024-01-06T09:15:09;103319.53;;;7.19;100.00
19845;BME280;10083;51.038;7.012;2024-01-06T09:17:38;103326.22;;;7.06;100.00
19845;BME280;10083;51.038;7.012;2024-01-06T09:20:06;103333.31;;;7.06;100.00
19845;BME280;10083;51.038;7.012;2024-01-06T09:22:34;103348.22;;;7.01;100.00
19845;BME280;10083;51.038;7.012;2024-01-06T09:25:01;103363.28;;;6.99;100.00
19845;BME280;10083;51.038;7.012;2024-01-06T09:27:28;103388.34;;;7.05;100.00
19845;BME280;10083;51.038;7.012;2024-01-06T09:29:55;103403.13;;;6.96;100.00
19845;BME280;10083;51.038;7.012;2024-01-06T09:32:23;103418.25;;;6.97;100.00
19845;BME280;10083;51.038;7.012;2024-01-06T09:34:51;103438.59;;;6.95;100.00
19845;BME280;10083;51.038;7.012;2024-01-06T09:37:18;103461.16;;;7.04;100.00
19845;BME280;10083;51.038;7.012;2024-01-06T09:39:46;103484.25;;;7.05;100.00
19845;BME280;10083;51.038;7.012;2024-01-06T09:42:13;103506.28;;;7.00;100.00
19845;BME280;10083;51.038;7.012;2024-01-06T09:44:40;103510.84;;;7.04;100.00
19845;BME280;10083;51.038;7.012;2024-01-06T09:47:09;103533.25;;;7.09;100.00
19845;BME280;10083;51.038;7.012;2024-01-06T09:49:38;103553.06;;;6.93;100.00
19845;BME280;10083;51.038;7.012;2024-01-06T09:52:13;103563.66;;;7.15;100.00
19845;BME280;10083;51.038;7.012;2024-01-06T09:54:46;103577.91;;;6.92;100.00
19845;BME280;10083;51.038;7.012;2024-01-06T09:57:17;103579.97;;;7.24;100.00
19845;BME280;10083;51.038;7.012;2024-01-06T09:59:45;103561.81;;;7.13;100.00
19845;BME280;10083;51.038;7.012;2024-01-06T10:02:14;103576.44;;;7.00;100.00
19845;BME280;10083;51.038;7.012;2024-01-06T10:04:42;103577.00;;;7.15;100.00
19845;BME280;10083;51.038;7.012;2024-01-06T10:07:11;103592.50;;;7.27;100.00
19845;BME280;10083;51.038;7.012;2024-01-06T10:09:40;103593.16;;;7.20;100.00
19845;BME280;10083;51.038;7.012;2024-01-06T10:12:08;103578.13;;;7.22;100.00
19845;BME280;10083;51.038;7.012;2024-01-06T10:14:36;103587.28;;;7.05;100.00
19845;BME280;10083;51.038;7.012;2024-01-06T10:17:06;103589.16;;;7.33;100.00
19845;BME280;10083;51.038;7.012;2024-01-06T10:19:33;103593.75;;;7.37;100.00
19845;BME280;10083;51.038;7.012;2024-01-06T10:22:02;103583.22;;;7.16;100.00
19845;BME280;10083;51.038;7.012;2024-01-06T10:24:31;103599.63;;;7.26;100.00
19845;BME280;10083;51.038;7.012;2024-01-06T10:26:58;103603.28;;;7.30;100.00
19845;BME280;10083;51.038;7.012;2024-01-06T10:29:29;103607.88;;;7.34;100.00
19845;BME280;10083;51.038;7.012;2024-01-06T10:31:57;103607.09;;;7.13;100.00
19845;BME280;10083;51.038;7.012;2024-01-06T10:34:28;103604.63;;;7.17;100.00
19845;BME280;10083;51.038;7.012;2024-01-06T10:36:58;103616.56;;;7.28;100.00
19845;BME280;10083;51.038;7.012;2024-01-06T10:39:26;103626.41;;;7.31;100.00
19845;BME280;10083;51.038;7.012;2024-01-06T10:41:57;103620.03;;;7.26;100.00
19845;BME280;10083;51.038;7.012;2024-01-06T10:44:24;103628.25;;;7.08;100.00
19845;BME280;10083;51.038;7.012;2024-01-06T10:46:57;103633.94;;;7.17;100.00
19845;BME280;10083;51.038;7.012;2024-01-06T10:49:26;103631.47;;;7.23;100.00
19845;BME280;10083;51.038;7.012;2024-01-06T10:51:56;103625.34;;;7.02;100.00
19845;BME280;10083;51.038;7.012;2024-01-06T10:54:27;103629.28;;;7.12;100.00
19845;BME280;10083;51.038;7.012;2024-01-06T10:56:57;103641.03;;;7.18;100.00
19845;BME280;10083;51.038;7.012;2024-01-06T10:59:26;103633.34;;;7.02;100.00
19845;BME280;10083;51.038;7.012;2024-01-06T11:01:58;103639.22;;;6.94;100.00
19845;BME280;10083;51.038;7.012;2024-01-06T11:04:25;103637.31;;;6.90;100.00
19845;BME280;10083;51.038;7.012;2024-01-06T11:06:56;103640.88;;;6.90;100.00
19845;BME280;10083;51.038;7.012;2024-01-06T11:09:27;103647.59;;;6.80;100.00
19845;BME280;10083;51.038;7.012;2024-01-06T11:12:01;103633.56;;;6.85;100.00
19845;BME280;10083;51.038;7.012;2024-01-06T11:14:28;103647.25;;;6.71;100.00
19845;BME280;10083;51.038;7.012;2024-01-06T11:16:57;103645.78;;;6.79;100.00
19845;BME280;10083;51.038;7.012;2024-01-06T11:19:43;103633.00;;;6.71;100.00
19845;BME280;10083;51.038;7.012;2024-01-06T11:22:26;103639.03;;;6.65;100.00
19845;BME280;10083;51.038;7.012;2024-01-06T11:24:55;103652.19;;;6.85;100.00
19845;BME280;10083;51.038;7.012;2024-01-06T11:27:25;103652.31;;;6.88;100.00
19845;BME280;10083;51.038;7.012;2024-01-06T11:29:54;103642.53;;;6.87;100.00
19845;BME280;10083;51.038;7.012;2024-01-06T11:32:28;103643.19;;;6.81;100.00
19845;BME280;10083;51.038;7.012;2024-01-06T11:34:59;103634.75;;;6.70;100.00
19845;BME280;10083;51.038;7.012;2024-01-06T11:37:35;103627.28;;;6.82;100.00
19845;BME280;10083;51.038;7.012;2024-01-06T11:40:04;103615.75;;;6.83;100.00
19845;BME280;10083;51.038;7.012;2024-01-06T11:42:36;103602.72;;;6.67;100.00
19845;BME280;10083;51.038;7.012;2024-01-06T11:45:04;103595.34;;;6.84;100.00
19845;BME280;10083;51.038;7.012;2024-01-06T11:47:32;103589.34;;;6.90;100.00
19845;BME280;10083;51.038;7.012;2024-01-06T11:50:01;103593.16;;;6.72;100.00
19845;BME280;10083;51.038;7.012;2024-01-06T11:52:30;103573.38;;;6.90;100.00
19845;BME280;10083;51.038;7.012;2024-01-06T11:54:58;103568.50;;;6.78;100.00
19845;BME280;10083;51.038;7.012;2024-01-06T11:57:25;103563.41;;;6.60;100.00
19845;BME280;10083;51.038;7.012;2024-01-06T11:59:55;103567.44;;;6.51;100.00
19845;BME280;10083;51.038;7.012;2024-01-06T12:02:22;103556.25;;;6.59;100.00
19845;BME280;10083;51.038;7.012;2024-01-06T12:04:50;103555.94;;;6.74;100.00
19845;BME280;10083;51.038;7.012;2024-01-06T12:07:18;103556.09;;;6.78;100.00
19845;BME280;10083;51.038;7.012;2024-01-06T12:09:46;103548.88;;;6.76;100.00
19845;BME280;10083;51.038;7.012;2024-01-06T12:12:15;103538.47;;;6.58;100.00
19845;BME280;10083;51.038;7.012;2024-01-06T12:14:42;103531.44;;;6.84;100.00
19845;BME280;10083;51.038;7.012;2024-01-06T12:17:12;103523.34;;;6.81;100.00
19845;BME280;10083;51.038;7.012;2024-01-06T12:19:40;103522.72;;;6.64;100.00
19845;BME280;10083;51.038;7.012;2024-01-06T12:22:11;103510.66;;;6.74;100.00
19845;BME280;10083;51.038;7.012;2024-01-06T12:24:39;103501.88;;;6.76;100.00
19845;BME280;10083;51.038;7.012;2024-01-06T12:27:07;103494.75;;;6.52;100.00
19845;BME280;10083;51.038;7.012;2024-01-06T12:29:38;103492.47;;;6.62;100.00
19845;BME280;10083;51.038;7.012;2024-01-06T12:32:06;103492.59;;;6.65;100.00
19845;BME280;10083;51.038;7.012;2024-01-06T12:34:35;103483.19;;;6.51;100.00
19845;BME280;10083;51.038;7.012;2024-01-06T12:37:03;103480.72;;;6.57;100.00
19845;BME280;10083;51.038;7.012;2024-01-06T12:39:33;103480.16;;;6.66;100.00
19845;BME280;10083;51.038;7.012;2024-01-06T12:42:01;103471.81;;;6.55;100.00
19845;BME280;10083;51.038;7.012;2024-01-06T12:44:28;103487.72;;;6.30;100.00
19845;BME280;10083;51.038;7.012;2024-01-06T12:46:58;103481.38;;;6.50;100.00
19845;BME280;10083;51.038;7.012;2024-01-06T12:49:25;103479.00;;;6.34;100.00
19845;BME280;10083;51.038;7.012;2024-01-06T12:51:54;103476.97;;;6.51;100.00
19845;BME280;10083;51.038;7.012;2024-01-06T12:54:21;103459.97;;;6.47;100.00